Aeroporto :
LOGIN :

Iscrizione | Disclaimer

   EN    FR    IT 

 










Sommario :    VFR   VFR Marginale   IFR   IFR Intensivo   IFR Molto Intensivo
Visibilità : 
Base nubi : 
>= 8 km
>= 3000ft
5 / 8 km
1000 / 3000 ft
1500m / 5 km
500 / 1000 ft
800 / 1500m
200 / 500 ft
< 800m
< 200 ft
Simboli :   Temporali  Nebbia  Neve Forte  Precipitazioni Forti  Vento > 20 kt
SIGMETs :   Varie  Temporali  Ghiacco  Turbolenza  Onda orograficha  Ceneri Vulcaniche






- Altitudine del aeroporto : 1411 ft
- Codice IATA : GVA


LSGG - Genève Cointrin

ULTIMO METAR :
  • 171150Z 22015KT 9999 VCSH BKN030 BKN060 12/05 Q1022 NOSIG

METARs OBSOLETI :
  • 171120Z 22017KT 9999 -SHRA BKN036 BKN060 13/05 Q1022 NOSIG
  • 171050Z 23021KT 9999 VCSH SCT035 BKN060 13/05 Q1022 NOSIG
  • 171020Z 20013G25KT 160V230 9999 SCT040 BKN070 13/05 Q1022 NOSIG
  • 170950Z 17010KT 140V200 9999 FEW038 SCT070 12/05 Q1021 NOSIG
  • 170920Z 20012KT 9999 FEW040 SCT070 12/05 Q1021 NOSIG

TAF TAF LSGG
Valido dal 17 a 12 ore il 18 a 18 ore UTC


171125Z 1712/1818 22010KT 9999 FEW020 BKN050 TX12/1712Z TN01/1806Z TX09/1815Z
TEMPO 1712/1723 22020G30KT SHRA
BECMG 1804/1806 VRB03KT
ATIS : +41 22 417 40 81



MetMap, La meteo Aeronautica in un colpo d'occhio ! - Copyright ORBIFLY Dicembre 2007 - Disclaimer

ORBIFLY MET'MAP TEAM :

Programmazione e sviluppo : Alexandra Zaïnal
Concezione : Baudouin d'Aumeries
Aiuto per la programmazione : Marc-Olivier Méhu
Supporto tecnico e logistico : Manuel Goepfert
Aiuto per la traduzione : Arnaldo La Scala

Contatto : metmap@orbifly.com




FONTI E CREDITI :

   NOAA